sensor_id;sensor_type;location;lat;lon;timestamp;pressure;altitude;pressure_sealevel;temperature;humidity
52535;BME280;38443;53.164;5.802;2023-04-01T00:00:47;99311.59;;;8.32;100.00
52535;BME280;38443;53.164;5.802;2023-04-01T00:03:13;99299.13;;;8.33;100.00
52535;BME280;38443;53.164;5.802;2023-04-01T00:05:38;99309.69;;;8.36;100.00
52535;BME280;38443;53.164;5.802;2023-04-01T00:08:04;99311.53;;;8.34;100.00
52535;BME280;38443;53.164;5.802;2023-04-01T00:10:29;99312.41;;;8.34;100.00
52535;BME280;38443;53.164;5.802;2023-04-01T00:12:55;99317.84;;;8.31;100.00
52535;BME280;38443;53.164;5.802;2023-04-01T00:15:20;99304.47;;;8.33;100.00
52535;BME280;38443;53.164;5.802;2023-04-01T00:17:45;99310.13;;;8.25;100.00
52535;BME280;38443;53.164;5.802;2023-04-01T00:20:11;99310.88;;;8.29;100.00
52535;BME280;38443;53.164;5.802;2023-04-01T00:22:37;99313.53;;;8.29;100.00
52535;BME280;38443;53.164;5.802;2023-04-01T00:25:03;99311.94;;;8.25;100.00
52535;BME280;38443;53.164;5.802;2023-04-01T00:27:29;99319.72;;;8.29;100.00
52535;BME280;38443;53.164;5.802;2023-04-01T00:29:54;99306.47;;;8.28;100.00
52535;BME280;38443;53.164;5.802;2023-04-01T00:32:20;99307.34;;;8.28;100.00
52535;BME280;38443;53.164;5.802;2023-04-01T00:34:45;99308.41;;;8.24;100.00
52535;BME280;38443;53.164;5.802;2023-04-01T00:37:10;99309.22;;;8.26;100.00
52535;BME280;38443;53.164;5.802;2023-04-01T00:39:36;99305.59;;;8.27;100.00
52535;BME280;38443;53.164;5.802;2023-04-01T00:42:02;99307.63;;;8.22;100.00
52535;BME280;38443;53.164;5.802;2023-04-01T00:44:32;99310.19;;;8.24;100.00
52535;BME280;38443;53.164;5.802;2023-04-01T00:46:59;99308.41;;;8.24;100.00
52535;BME280;38443;53.164;5.802;2023-04-01T00:49:31;99316.47;;;8.23;100.00
52535;BME280;38443;53.164;5.802;2023-04-01T00:52:00;99311.09;;;8.24;100.00
52535;BME280;38443;53.164;5.802;2023-04-01T00:54:27;99309.28;;;8.25;100.00
52535;BME280;38443;53.164;5.802;2023-04-01T00:57:00;99310.19;;;8.24;100.00
52535;BME280;38443;53.164;5.802;2023-04-01T00:59:34;99313.81;;;8.23;100.00
52535;BME280;38443;53.164;5.802;2023-04-01T01:02:02;99311.16;;;8.23;100.00
52535;BME280;38443;53.164;5.802;2023-04-01T01:04:31;99314.66;;;8.23;100.00
52535;BME280;38443;53.164;5.802;2023-04-01T01:07:12;99312.06;;;8.22;100.00
52535;BME280;38443;53.164;5.802;2023-04-01T01:12:37;99321.06;;;8.19;100.00
52535;BME280;38443;53.164;5.802;2023-04-01T01:17:57;99327.47;;;8.15;100.00
52535;BME280;38443;53.164;5.802;2023-04-01T01:23:10;99326.72;;;8.11;100.00
52535;BME280;38443;53.164;5.802;2023-04-01T01:30:57;99341.88;;;8.11;100.00
52535;BME280;38443;53.164;5.802;2023-04-01T01:33:36;99333.94;;;8.09;100.00
52535;BME280;38443;53.164;5.802;2023-04-01T01:36:06;99341.81;;;8.12;100.00
52535;BME280;38443;53.164;5.802;2023-04-01T01:38:37;99336.41;;;8.14;100.00
52535;BME280;38443;53.164;5.802;2023-04-01T01:41:05;99347.94;;;8.14;100.00
52535;BME280;38443;53.164;5.802;2023-04-01T01:43:36;99339.09;;;8.14;100.00
52535;BME280;38443;53.164;5.802;2023-04-01T01:46:07;99339.88;;;8.16;100.00
52535;BME280;38443;53.164;5.802;2023-04-01T01:48:35;99340.75;;;8.16;100.00
52535;BME280;38443;53.164;5.802;2023-04-01T01:51:02;99349.53;;;8.18;100.00
52535;BME280;38443;53.164;5.802;2023-04-01T01:53:27;99346.88;;;8.18;100.00
52535;BME280;38443;53.164;5.802;2023-04-01T01:55:52;99349.66;;;8.15;100.00
52535;BME280;38443;53.164;5.802;2023-04-01T02:01:00;99351.25;;;8.19;100.00
52535;BME280;38443;53.164;5.802;2023-04-01T02:03:29;99357.47;;;8.20;100.00
52535;BME280;38443;53.164;5.802;2023-04-01T02:05:57;99354.81;;;8.20;100.00
52535;BME280;38443;53.164;5.802;2023-04-01T02:08:29;99357.47;;;8.20;100.00
52535;BME280;38443;53.164;5.802;2023-04-01T02:11:04;99365.38;;;8.22;100.00
52535;BME280;38443;53.164;5.802;2023-04-01T02:13:34;99363.59;;;8.22;100.00
52535;BME280;38443;53.164;5.802;2023-04-01T02:16:08;99369.84;;;8.21;100.00
52535;BME280;38443;53.164;5.802;2023-04-01T02:18:37;99370.69;;;8.22;100.00
52535;BME280;38443;53.164;5.802;2023-04-01T02:21:04;99376.03;;;8.22;100.00
52535;BME280;38443;53.164;5.802;2023-04-01T02:23:33;99371.59;;;8.22;100.00
52535;BME280;38443;53.164;5.802;2023-04-01T02:26:01;99385.78;;;8.23;100.00
52535;BME280;38443;53.164;5.802;2023-04-01T02:28:28;99378.69;;;8.22;100.00
52535;BME280;38443;53.164;5.802;2023-04-01T02:30:57;99384.03;;;8.22;100.00
52535;BME280;38443;53.164;5.802;2023-04-01T02:33:25;99382.25;;;8.22;100.00
52535;BME280;38443;53.164;5.802;2023-04-01T02:35:52;99387.59;;;8.22;100.00
52535;BME280;38443;53.164;5.802;2023-04-01T02:38:17;99390.44;;;8.17;100.00
52535;BME280;38443;53.164;5.802;2023-04-01T02:40:49;99390.31;;;8.21;100.00
52535;BME280;38443;53.164;5.802;2023-04-01T02:43:14;99391.16;;;8.21;100.00
52535;BME280;38443;53.164;5.802;2023-04-01T02:45:42;99386.69;;;8.22;100.00
52535;BME280;38443;53.164;5.802;2023-04-01T02:48:07;99394.69;;;8.22;100.00
52535;BME280;38443;53.164;5.802;2023-04-01T02:50:32;99395.75;;;8.17;100.00
52535;BME280;38443;53.164;5.802;2023-04-01T02:52:58;99403.63;;;8.21;100.00
52535;BME280;38443;53.164;5.802;2023-04-01T02:55:23;99399.31;;;8.18;100.00
52535;BME280;38443;53.164;5.802;2023-04-01T02:57:48;99401.03;;;8.19;100.00
52535;BME280;38443;53.164;5.802;2023-04-01T03:00:14;99408.97;;;8.21;100.00
52535;BME280;38443;53.164;5.802;2023-04-01T03:02:40;99413.44;;;8.20;100.00
52535;BME280;38443;53.164;5.802;2023-04-01T03:05:05;99416.22;;;8.17;100.00
52535;BME280;38443;53.164;5.802;2023-04-01T03:07:31;99424.16;;;8.18;100.00
52535;BME280;38443;53.164;5.802;2023-04-01T03:09:56;99427.75;;;8.17;100.00
52535;BME280;38443;53.164;5.802;2023-04-01T03:12:22;99424.22;;;8.17;100.00
52535;BME280;38443;53.164;5.802;2023-04-01T03:14:47;99434.03;;;8.16;100.00
52535;BME280;38443;53.164;5.802;2023-04-01T03:17:12;99434.88;;;8.17;100.00
52535;BME280;38443;53.164;5.802;2023-04-01T03:19:37;99438.41;;;8.17;100.00
52535;BME280;38443;53.164;5.802;2023-04-01T03:22:03;99433.22;;;8.14;100.00
52535;BME280;38443;53.164;5.802;2023-04-01T03:24:28;99426.94;;;8.15;100.00
52535;BME280;38443;53.164;5.802;2023-04-01T03:26:53;99436.88;;;8.12;100.00
52535;BME280;38443;53.164;5.802;2023-04-01T03:29:18;99438.53;;;8.14;100.00
52535;BME280;38443;53.164;5.802;2023-04-01T03:31:44;99445.75;;;8.12;100.00
52535;BME280;38443;53.164;5.802;2023-04-01T03:34:09;99455.44;;;8.13;100.00
52535;BME280;38443;53.164;5.802;2023-04-01T03:36:35;99452.78;;;8.13;100.00
52535;BME280;38443;53.164;5.802;2023-04-01T03:39:00;99459.91;;;8.13;100.00
52535;BME280;38443;53.164;5.802;2023-04-01T03:41:26;99465.19;;;8.14;100.00
52535;BME280;38443;53.164;5.802;2023-04-01T03:43:53;99458.13;;;8.13;100.00
52535;BME280;38443;53.164;5.802;2023-04-01T03:46:19;99459.91;;;8.13;100.00
52535;BME280;38443;53.164;5.802;2023-04-01T03:48:45;99466.13;;;8.13;100.00
52535;BME280;38443;53.164;5.802;2023-04-01T03:51:10;99467.06;;;8.12;100.00
52535;BME280;38443;53.164;5.802;2023-04-01T03:53:36;99468.78;;;8.13;100.00
52535;BME280;38443;53.164;5.802;2023-04-01T03:56:05;99481.19;;;8.14;100.00
52535;BME280;38443;53.164;5.802;2023-04-01T03:58:30;99475.84;;;8.14;100.00
52535;BME280;38443;53.164;5.802;2023-04-01T04:00:56;99480.38;;;8.12;100.00
52535;BME280;38443;53.164;5.802;2023-04-01T04:03:21;99479.44;;;8.13;100.00
52535;BME280;38443;53.164;5.802;2023-04-01T04:05:49;99480.44;;;8.11;100.00
52535;BME280;38443;53.164;5.802;2023-04-01T04:08:16;99487.53;;;8.12;100.00
52535;BME280;38443;53.164;5.802;2023-04-01T04:10:41;99490.19;;;8.12;100.00
52535;BME280;38443;53.164;5.802;2023-04-01T04:13:08;99489.28;;;8.11;100.00
52535;BME280;38443;53.164;5.802;2023-04-01T04:15:33;99496.47;;;8.09;100.00
52535;BME280;38443;53.164;5.802;2023-04-01T04:17:58;99490.25;;;8.10;100.00
52535;BME280;38443;53.164;5.802;2023-04-01T04:20:23;99496.53;;;8.08;100.00
52535;BME280;38443;53.164;5.802;2023-04-01T04:22:49;99497.38;;;8.10;100.00
52535;BME280;38443;53.164;5.802;2023-04-01T04:25:14;99501.81;;;8.09;100.00
52535;BME280;38443;53.164;5.802;2023-04-01T04:27:40;99503.56;;;8.10;100.00
52535;BME280;38443;53.164;5.802;2023-04-01T04:30:06;99500.03;;;8.10;100.00
52535;BME280;38443;53.164;5.802;2023-04-01T04:32:31;99511.56;;;8.10;100.00
52535;BME280;38443;53.164;5.802;2023-04-01T04:34:57;99512.47;;;8.09;100.00
52535;BME280;38443;53.164;5.802;2023-04-01T04:37:22;99519.56;;;8.10;100.00
52535;BME280;38443;53.164;5.802;2023-04-01T04:39:47;99519.59;;;8.09;100.00
52535;BME280;38443;53.164;5.802;2023-04-01T04:42:13;99523.09;;;8.11;100.00
52535;BME280;38443;53.164;5.802;2023-04-01T04:44:38;99530.28;;;8.09;100.00
52535;BME280;38443;53.164;5.802;2023-04-01T04:47:04;99526.69;;;8.10;100.00
52535;BME280;38443;53.164;5.802;2023-04-01T04:49:29;99524.09;;;8.08;100.00
52535;BME280;38443;53.164;5.802;2023-04-01T04:51:55;99534.59;;;8.11;100.00
52535;BME280;38443;53.164;5.802;2023-04-01T04:54:20;99528.34;;;8.12;100.00
52535;BME280;38443;53.164;5.802;2023-04-01T04:56:45;99542.69;;;8.10;100.00
52535;BME280;38443;53.164;5.802;2023-04-01T04:59:10;99547.00;;;8.12;100.00
52535;BME280;38443;53.164;5.802;2023-04-01T05:01:37;99549.69;;;8.12;100.00
52535;BME280;38443;53.164;5.802;2023-04-01T05:04:03;99546.22;;;8.10;100.00
52535;BME280;38443;53.164;5.802;2023-04-01T05:06:29;99556.81;;;8.12;100.00
52535;BME280;38443;53.164;5.802;2023-04-01T05:08:57;99555.81;;;8.14;100.00
52535;BME280;38443;53.164;5.802;2023-04-01T05:11:22;99558.59;;;8.11;100.00
52535;BME280;38443;53.164;5.802;2023-04-01T05:13:48;99565.63;;;8.14;100.00
52535;BME280;38443;53.164;5.802;2023-04-01T05:16:17;99562.06;;;8.13;100.00
52535;BME280;38443;53.164;5.802;2023-04-01T05:18:43;99563.88;;;8.13;100.00
52535;BME280;38443;53.164;5.802;2023-04-01T05:21:09;99571.91;;;8.11;100.00
52535;BME280;38443;53.164;5.802;2023-04-01T05:23:35;99576.28;;;8.14;100.00
52535;BME280;38443;53.164;5.802;2023-04-01T05:26:07;99581.66;;;8.12;100.00
52535;BME280;38443;53.164;5.802;2023-04-01T05:28:33;99580.66;;;8.15;100.00
52535;BME280;38443;53.164;5.802;2023-04-01T05:30:59;99591.38;;;8.13;100.00
52535;BME280;38443;53.164;5.802;2023-04-01T05:33:26;99579.78;;;8.14;100.00
52535;BME280;38443;53.164;5.802;2023-04-01T05:35:52;99592.97;;;8.17;100.00
52535;BME280;38443;53.164;5.802;2023-04-01T05:38:17;99595.75;;;8.16;100.00
52535;BME280;38443;53.164;5.802;2023-04-01T05:40:43;99596.53;;;8.18;100.00
52535;BME280;38443;53.164;5.802;2023-04-01T05:43:08;99605.41;;;8.18;100.00
52535;BME280;38443;53.164;5.802;2023-04-01T05:45:33;99601.06;;;8.16;100.00
52535;BME280;38443;53.164;5.802;2023-04-01T05:47:59;99602.72;;;8.18;100.00
52535;BME280;38443;53.164;5.802;2023-04-01T05:50:24;99613.44;;;8.17;100.00
52535;BME280;38443;53.164;5.802;2023-04-01T05:52:50;99614.25;;;8.19;100.00
52535;BME280;38443;53.164;5.802;2023-04-01T05:55:15;99621.44;;;8.17;100.00
52535;BME280;38443;53.164;5.802;2023-04-01T05:57:40;99628.44;;;8.19;100.00
52535;BME280;38443;53.164;5.802;2023-04-01T06:00:06;99624.09;;;8.17;100.00
52535;BME280;38443;53.164;5.802;2023-04-01T06:02:31;99632.00;;;8.20;100.00
52535;BME280;38443;53.164;5.802;2023-04-01T06:05:11;99631.19;;;8.18;100.00
52535;BME280;38443;53.164;5.802;2023-04-01T06:07:37;99629.34;;;8.20;100.00
52535;BME280;38443;53.164;5.802;2023-04-01T06:10:05;99638.28;;;8.17;100.00
52535;BME280;38443;53.164;5.802;2023-04-01T06:21:27;99654.25;;;8.19;100.00
52535;BME280;38443;53.164;5.802;2023-04-01T06:24:22;99659.56;;;8.19;100.00
52535;BME280;38443;53.164;5.802;2023-04-01T06:30:27;99666.56;;;8.22;100.00
52535;BME280;38443;53.164;5.802;2023-04-01T06:33:48;99670.13;;;8.22;100.00
52535;BME280;38443;53.164;5.802;2023-04-01T06:41:30;99685.97;;;8.25;100.00
52535;BME280;38443;53.164;5.802;2023-04-01T06:55:40;99699.06;;;8.31;100.00
52535;BME280;38443;53.164;5.802;2023-04-01T06:58:06;99703.50;;;8.32;100.00
52535;BME280;38443;53.164;5.802;2023-04-01T07:00:39;99711.44;;;8.34;100.00
52535;BME280;38443;53.164;5.802;2023-04-01T07:05:56;99706.91;;;8.36;100.00
52535;BME280;38443;53.164;5.802;2023-04-01T07:08:25;99719.31;;;8.37;100.00
52535;BME280;38443;53.164;5.802;2023-04-01T07:11:03;99719.25;;;8.38;100.00
52535;BME280;38443;53.164;5.802;2023-04-01T07:16:11;99737.06;;;8.38;100.00
52535;BME280;38443;53.164;5.802;2023-04-01T07:18:44;99736.13;;;8.39;100.00
52535;BME280;38443;53.164;5.802;2023-04-01T07:21:26;99736.13;;;8.39;100.00
52535;BME280;38443;53.164;5.802;2023-04-01T07:23:57;99746.72;;;8.42;100.00
52535;BME280;38443;53.164;5.802;2023-04-01T07:26:25;99743.97;;;8.44;100.00
52535;BME280;38443;53.164;5.802;2023-04-01T07:28:52;99759.00;;;8.46;100.00
52535;BME280;38443;53.164;5.802;2023-04-01T07:34:29;99753.53;;;8.49;100.00
52535;BME280;38443;53.164;5.802;2023-04-01T07:37:10;99762.47;;;8.48;100.00
52535;BME280;38443;53.164;5.802;2023-04-01T07:42:47;99775.53;;;8.56;100.00
52535;BME280;38443;53.164;5.802;2023-04-01T07:45:33;99772.78;;;8.57;100.00
52535;BME280;38443;53.164;5.802;2023-04-01T07:51:15;99782.28;;;8.65;100.00
52535;BME280;38443;53.164;5.802;2023-04-01T08:01:35;99812.53;;;8.87;100.00
52535;BME280;38443;53.164;5.802;2023-04-01T08:04:24;99801.00;;;8.87;100.00
52535;BME280;38443;53.164;5.802;2023-04-01T08:09:28;99815.72;;;8.97;100.00
52535;BME280;38443;53.164;5.802;2023-04-01T08:14:45;99836.03;;;9.01;100.00
52535;BME280;38443;53.164;5.802;2023-04-01T08:17:27;99835.78;;;9.07;100.00
52535;BME280;38443;53.164;5.802;2023-04-01T08:20:32;99835.59;;;9.12;100.00
52535;BME280;38443;53.164;5.802;2023-04-01T08:25:30;99845.59;;;9.07;100.00
52535;BME280;38443;53.164;5.802;2023-04-01T08:28:08;99854.84;;;8.98;100.00
52535;BME280;38443;53.164;5.802;2023-04-01T08:30:42;99848.59;;;8.97;100.00
52535;BME280;38443;53.164;5.802;2023-04-01T08:33:13;99853.78;;;9.02;100.00
52535;BME280;38443;53.164;5.802;2023-04-01T08:38:31;99865.94;;;9.09;100.00
52535;BME280;38443;53.164;5.802;2023-04-01T08:55:14;99884.06;;;9.47;100.00
52535;BME280;38443;53.164;5.802;2023-04-01T08:57:53;99884.88;;;9.49;100.00
52535;BME280;38443;53.164;5.802;2023-04-01T09:00:44;99889.34;;;9.48;100.00
52535;BME280;38443;53.164;5.802;2023-04-01T09:20:08;99906.72;;;10.23;100.00
52535;BME280;38443;53.164;5.802;2023-04-01T09:25:23;99909.00;;;9.90;100.00
52535;BME280;38443;53.164;5.802;2023-04-01T09:27:57;99909.97;;;9.89;100.00
52535;BME280;38443;53.164;5.802;2023-04-01T09:36:01;99923.28;;;9.90;100.00
52535;BME280;38443;53.164;5.802;2023-04-01T09:46:39;99945.88;;;9.82;100.00
52535;BME280;38443;53.164;5.802;2023-04-01T09:52:20;99958.19;;;9.86;100.00
52535;BME280;38443;53.164;5.802;2023-04-01T10:05:53;99980.59;;;9.59;100.00
52535;BME280;38443;53.164;5.802;2023-04-01T10:14:07;99988.81;;;9.31;100.00
52535;BME280;38443;53.164;5.802;2023-04-01T10:22:57;99997.13;;;9.47;100.00
52535;BME280;38443;53.164;5.802;2023-04-01T10:35:09;100014.88;;;9.25;100.00
52535;BME280;38443;53.164;5.802;2023-04-01T10:46:21;100035.38;;;8.99;100.00
52535;BME280;38443;53.164;5.802;2023-04-01T10:54:20;100038.25;;;9.18;100.00
52535;BME280;38443;53.164;5.802;2023-04-01T10:57:29;100051.59;;;9.18;100.00
52535;BME280;38443;53.164;5.802;2023-04-01T11:00:11;100047.78;;;9.25;100.00
52535;BME280;38443;53.164;5.802;2023-04-01T11:11:41;100072.59;;;9.29;100.00
52535;BME280;38443;53.164;5.802;2023-04-01T11:14:29;100073.59;;;9.26;100.00
52535;BME280;38443;53.164;5.802;2023-04-01T11:25:48;100087.16;;;9.20;100.00
52535;BME280;38443;53.164;5.802;2023-04-01T11:39:53;100121.09;;;9.16;100.00
52535;BME280;38443;53.164;5.802;2023-04-01T11:48:09;100116.41;;;9.48;100.00
52535;BME280;38443;53.164;5.802;2023-04-01T11:54:24;100126.91;;;9.53;100.00
52535;BME280;38443;53.164;5.802;2023-04-01T11:57:04;100128.00;;;9.47;100.00
52535;BME280;38443;53.164;5.802;2023-04-01T12:08:08;100148.97;;;9.58;100.00
52535;BME280;38443;53.164;5.802;2023-04-01T12:10:53;100156.78;;;9.64;100.00
52535;BME280;38443;53.164;5.802;2023-04-01T12:18:53;100175.19;;;9.22;100.00
52535;BME280;38443;53.164;5.802;2023-04-01T12:21:38;100183.38;;;9.17;100.00
52535;BME280;38443;53.164;5.802;2023-04-01T12:32:34;100204.63;;;9.20;100.00
52535;BME280;38443;53.164;5.802;2023-04-01T12:37:56;100202.75;;;9.49;100.00
52535;BME280;38443;53.164;5.802;2023-04-01T12:40:38;100206.84;;;9.59;100.00
52535;BME280;38443;53.164;5.802;2023-04-01T12:43:40;100218.22;;;9.39;100.00
52535;BME280;38443;53.164;5.802;2023-04-01T12:46:25;100218.00;;;9.20;100.00
52535;BME280;38443;53.164;5.802;2023-04-01T12:49:26;100229.13;;;9.33;100.00
52535;BME280;38443;53.164;5.802;2023-04-01T12:52:09;100230.75;;;9.37;100.00
52535;BME280;38443;53.164;5.802;2023-04-01T13:08:59;100254.03;;;9.33;100.00
52535;BME280;38443;53.164;5.802;2023-04-01T13:22:24;100291.22;;;9.11;100.00
52535;BME280;38443;53.164;5.802;2023-04-01T13:27:46;100289.72;;;9.31;100.00
52535;BME280;38443;53.164;5.802;2023-04-01T13:30:26;100294.28;;;9.27;100.00
52535;BME280;38443;53.164;5.802;2023-04-01T13:33:04;100301.69;;;9.19;100.00
52535;BME280;38443;53.164;5.802;2023-04-01T13:35:51;100306.19;;;8.89;100.00
52535;BME280;38443;53.164;5.802;2023-04-01T13:44:11;100314.19;;;8.59;100.00
52535;BME280;38443;53.164;5.802;2023-04-01T13:46:52;100328.19;;;8.67;100.00
52535;BME280;38443;53.164;5.802;2023-04-01T13:49:34;100328.50;;;8.56;100.00
52535;BME280;38443;53.164;5.802;2023-04-01T13:52:27;100331.53;;;8.44;100.00
52535;BME280;38443;53.164;5.802;2023-04-01T13:55:14;100337.13;;;8.33;100.00
52535;BME280;38443;53.164;5.802;2023-04-01T14:01:04;100357.31;;;8.44;100.00
52535;BME280;38443;53.164;5.802;2023-04-01T14:23:00;100410.66;;;8.09;100.00
52535;BME280;38443;53.164;5.802;2023-04-01T14:28:38;100405.09;;;8.18;100.00
52535;BME280;38443;53.164;5.802;2023-04-01T14:34:23;100431.66;;;8.22;100.00
52535;BME280;38443;53.164;5.802;2023-04-01T14:39:46;100448.72;;;8.16;100.00
52535;BME280;38443;53.164;5.802;2023-04-01T14:47:50;100453.78;;;7.91;100.00
52535;BME280;38443;53.164;5.802;2023-04-01T14:50:25;100461.09;;;7.81;100.00
52535;BME280;38443;53.164;5.802;2023-04-01T14:58:13;100471.19;;;7.68;100.00
52535;BME280;38443;53.164;5.802;2023-04-01T15:01:10;100480.88;;;7.72;100.00
52535;BME280;38443;53.164;5.802;2023-04-01T15:03:48;100486.06;;;7.77;100.00
52535;BME280;38443;53.164;5.802;2023-04-01T15:09:06;100486.16;;;7.74;100.00
52535;BME280;38443;53.164;5.802;2023-04-01T15:14:17;100521.94;;;7.62;100.00
52535;BME280;38443;53.164;5.802;2023-04-01T15:17:15;100511.38;;;7.57;100.00
52535;BME280;38443;53.164;5.802;2023-04-01T15:26:20;100534.69;;;7.48;100.00
52535;BME280;38443;53.164;5.802;2023-04-01T15:29:17;100540.22;;;7.37;100.00
52535;BME280;38443;53.164;5.802;2023-04-01T15:31:54;100552.84;;;7.27;100.00
52535;BME280;38443;53.164;5.802;2023-04-01T15:34:53;100559.34;;;7.14;100.00
52535;BME280;38443;53.164;5.802;2023-04-01T15:37:44;100562.00;;;7.14;100.00
52535;BME280;38443;53.164;5.802;2023-04-01T15:45:58;100580.06;;;6.96;100.00
52535;BME280;38443;53.164;5.802;2023-04-01T15:48:30;100581.00;;;6.94;100.00
52535;BME280;38443;53.164;5.802;2023-04-01T16:05:00;100615.91;;;6.75;100.00
52535;BME280;38443;53.164;5.802;2023-04-01T16:10:25;100631.09;;;6.70;100.00
52535;BME280;38443;53.164;5.802;2023-04-01T16:15:44;100656.81;;;6.70;100.00
52535;BME280;38443;53.164;5.802;2023-04-01T16:18:32;100661.41;;;6.60;100.00
52535;BME280;38443;53.164;5.802;2023-04-01T16:21:19;100664.06;;;6.60;100.00
52535;BME280;38443;53.164;5.802;2023-04-01T16:23:53;100669.41;;;6.57;100.00
52535;BME280;38443;53.164;5.802;2023-04-01T16:26:47;100688.97;;;6.51;100.00
52535;BME280;38443;53.164;5.802;2023-04-01T16:31:47;100683.63;;;6.54;100.00
52535;BME280;38443;53.164;5.802;2023-04-01T16:34:19;100688.00;;;6.58;100.00
52535;BME280;38443;53.164;5.802;2023-04-01T16:36:54;100695.97;;;6.58;100.00
52535;BME280;38443;53.164;5.802;2023-04-01T16:39:47;100709.38;;;6.52;100.00
52535;BME280;38443;53.164;5.802;2023-04-01T16:42:31;100705.94;;;6.46;100.00
52535;BME280;38443;53.164;5.802;2023-04-01T16:47:49;100724.75;;;6.32;100.00
52535;BME280;38443;53.164;5.802;2023-04-01T16:50:22;100731.88;;;6.27;100.00
52535;BME280;38443;53.164;5.802;2023-04-01T16:52:59;100740.88;;;6.18;100.00
52535;BME280;38443;53.164;5.802;2023-04-01T16:58:23;100762.31;;;6.01;100.00
52535;BME280;38443;53.164;5.802;2023-04-01T17:01:03;100763.28;;;5.95;100.00
52535;BME280;38443;53.164;5.802;2023-04-01T17:03:39;100765.94;;;5.94;100.00
52535;BME280;38443;53.164;5.802;2023-04-01T17:11:07;100782.81;;;5.88;100.00
52535;BME280;38443;53.164;5.802;2023-04-01T17:19:23;100797.88;;;5.86;100.00
52535;BME280;38443;53.164;5.802;2023-04-01T17:22:15;100815.59;;;5.86;100.00
52535;BME280;38443;53.164;5.802;2023-04-01T17:28:12;100811.22;;;5.80;100.00
52535;BME280;38443;53.164;5.802;2023-04-01T17:30:58;100825.38;;;5.80;100.00
52535;BME280;38443;53.164;5.802;2023-04-01T17:36:47;100839.66;;;5.67;100.00
52535;BME280;38443;53.164;5.802;2023-04-01T17:44:54;100862.78;;;5.57;100.00
52535;BME280;38443;53.164;5.802;2023-04-01T17:56:02;100888.47;;;5.51;100.00
52535;BME280;38443;53.164;5.802;2023-04-01T18:06:47;100914.22;;;5.43;100.00
52535;BME280;38443;53.164;5.802;2023-04-01T18:09:34;100923.09;;;5.37;100.00
52535;BME280;38443;53.164;5.802;2023-04-01T18:12:14;100927.56;;;5.33;100.00
52535;BME280;38443;53.164;5.802;2023-04-01T18:17:21;100939.97;;;5.31;100.00
52535;BME280;38443;53.164;5.802;2023-04-01T18:25:44;100979.72;;;5.34;100.00
52535;BME280;38443;53.164;5.802;2023-04-01T18:31:08;100993.00;;;5.34;100.00
52535;BME280;38443;53.164;5.802;2023-04-01T18:33:48;100993.03;;;5.28;100.00
52535;BME280;38443;53.164;5.802;2023-04-01T18:38:49;101003.66;;;5.28;100.00
52535;BME280;38443;53.164;5.802;2023-04-01T18:44:26;101023.13;;;5.24;100.00
52535;BME280;38443;53.164;5.802;2023-04-01T18:49:39;101034.63;;;5.23;100.00
52535;BME280;38443;53.164;5.802;2023-04-01T18:52:20;101035.53;;;5.22;100.00
52535;BME280;38443;53.164;5.802;2023-04-01T18:55:20;101041.75;;;5.19;100.00
52535;BME280;38443;53.164;5.802;2023-04-01T18:57:49;101040.88;;;5.16;100.00
52535;BME280;38443;53.164;5.802;2023-04-01T19:00:27;101059.44;;;5.16;100.00
52535;BME280;38443;53.164;5.802;2023-04-01T19:03:26;101057.69;;;5.12;100.00
52535;BME280;38443;53.164;5.802;2023-04-01T19:05:59;101072.69;;;5.13;100.00
52535;BME280;38443;53.164;5.802;2023-04-01T19:08:32;101071.84;;;5.09;100.00
52535;BME280;38443;53.164;5.802;2023-04-01T19:13:47;101082.47;;;5.06;100.00
52535;BME280;38443;53.164;5.802;2023-04-01T19:19:13;101099.28;;;5.04;100.00
52535;BME280;38443;53.164;5.802;2023-04-01T19:21:47;101099.25;;;4.99;100.00
52535;BME280;38443;53.164;5.802;2023-04-01T19:24:46;101114.31;;;4.94;100.00
52535;BME280;38443;53.164;5.802;2023-04-01T19:27:18;101110.78;;;4.89;100.00
52535;BME280;38443;53.164;5.802;2023-04-01T19:35:35;101136.44;;;4.84;100.00
52535;BME280;38443;53.164;5.802;2023-04-01T19:38:09;101145.28;;;4.86;100.00
52535;BME280;38443;53.164;5.802;2023-04-01T19:40:58;101139.06;;;4.79;100.00
52535;BME280;38443;53.164;5.802;2023-04-01T19:43:38;101146.16;;;4.78;100.00
52535;BME280;38443;53.164;5.802;2023-04-01T19:48:49;101162.94;;;4.80;100.00
52535;BME280;38443;53.164;5.802;2023-04-01T19:51:29;101166.50;;;4.76;100.00
52535;BME280;38443;53.164;5.802;2023-04-01T19:54:04;101170.91;;;4.74;100.00
52535;BME280;38443;53.164;5.802;2023-04-01T20:02:52;101189.47;;;4.68;100.00
52535;BME280;38443;53.164;5.802;2023-04-01T20:05:30;101199.19;;;4.68;100.00
52535;BME280;38443;53.164;5.802;2023-04-01T20:08:12;101208.94;;;4.67;100.00
52535;BME280;38443;53.164;5.802;2023-04-01T20:10:43;101192.13;;;4.62;100.00
52535;BME280;38443;53.164;5.802;2023-04-01T20:13:21;101214.22;;;4.59;100.00
52535;BME280;38443;53.164;5.802;2023-04-01T20:16:02;101217.75;;;4.55;100.00
52535;BME280;38443;53.164;5.802;2023-04-01T20:18:36;101228.34;;;4.52;100.00
52535;BME280;38443;53.164;5.802;2023-04-01T20:21:15;101228.34;;;4.49;100.00
52535;BME280;38443;53.164;5.802;2023-04-01T20:23:45;101237.16;;;4.48;100.00
52535;BME280;38443;53.164;5.802;2023-04-01T20:26:20;101246.00;;;4.47;100.00
52535;BME280;38443;53.164;5.802;2023-04-01T20:29:12;101246.00;;;4.44;100.00
52535;BME280;38443;53.164;5.802;2023-04-01T20:31:43;101252.16;;;4.45;100.00
52535;BME280;38443;53.164;5.802;2023-04-01T20:37:32;101268.94;;;4.37;100.00
52535;BME280;38443;53.164;5.802;2023-04-01T20:40:23;101268.94;;;4.37;100.00
52535;BME280;38443;53.164;5.802;2023-04-01T20:43:35;101265.41;;;4.34;100.00
52535;BME280;38443;53.164;5.802;2023-04-01T20:46:48;101281.28;;;4.37;100.00
52535;BME280;38443;53.164;5.802;2023-04-01T20:49:32;101296.31;;;4.35;100.00